West Akron, Ohio
Current Conditions -  °F | °C
As of 1:54 PM on Friday 31 Oct 2014 (Local Time) from KAKR Reporting Station
Overcast Overcast  
Wind Chill: 45°   Ceiling: 4100
Heat Index: 48°   Visibility: 10mi
Dew Point: 37°   Wind: 7mph
Humidity: 66%   Direction: 190°S
Pressure: 29.86"   Gusts: NA
Location:  41.0707°N, 81.5458°W
Report Text: KAKR 311754Z AUTO 19006KT 10SM OVC041 09/03 A2986 RMK AO2 SLP114 T00890028 10094 20072 58018
Loading
Personal Weather Stations






























Interactive Weather Map
Tropical Storm Tracking
New forecast layout! Learn more

10-Day Weather Forecast

Advertisements
Track Severe Weather on mobile